createdAt,value
2022-08-09T00:00:04.335Z,101117.50
2022-08-09T00:02:47.325Z,101119.69
2022-08-09T00:06:17.933Z,101120.56
2022-08-09T00:08:10.679Z,101120.56
2022-08-09T00:10:38.794Z,101119.78
2022-08-09T00:13:16.745Z,101117.56
2022-08-09T00:15:58.721Z,101116.44
2022-08-09T00:18:29.584Z,101103.41
2022-08-09T00:20:57.111Z,101106.72
2022-08-09T00:23:54.875Z,101110.56
2022-08-09T00:26:14.603Z,101118.47
2022-08-09T00:28:42.192Z,101112.28
2022-08-09T00:31:56.845Z,101110.09
2022-08-09T00:34:08.938Z,101104.38
2022-08-09T00:36:38.455Z,101104.22
2022-08-09T00:39:10.890Z,101103.53
2022-08-09T00:44:11.855Z,101105.06
2022-08-09T00:44:47.084Z,101111.91
2022-08-09T00:47:15.690Z,101105.06
2022-08-09T00:49:43.847Z,101114.94
2022-08-09T00:52:30.402Z,101106.09
2022-08-09T00:55:01.282Z,101114.63
2022-08-09T00:57:34.827Z,101117.13
2022-08-09T01:00:20.627Z,101118.66
2022-08-09T01:02:51.218Z,101121.81
2022-08-09T01:05:51.762Z,101110.63
2022-08-09T01:08:16.989Z,101110.63
2022-08-09T01:11:03.341Z,101120.47
2022-08-09T01:13:53.298Z,101115.50
2022-08-09T01:16:29.134Z,101115.34
2022-08-09T01:19:04.939Z,101114.16
2022-08-09T01:21:50.966Z,101119.19
2022-08-09T01:24:29.404Z,101115.00
2022-08-09T01:27:01.785Z,101113.50
2022-08-09T01:29:41.034Z,101118.03
2022-08-09T01:32:32.467Z,101113.47
2022-08-09T01:35:07.225Z,101119.34
2022-08-09T01:38:08.092Z,101122.88
2022-08-09T01:40:40.929Z,101112.66
2022-08-09T01:43:11.104Z,101110.16
2022-08-09T01:45:46.365Z,101117.16
2022-08-09T01:48:16.670Z,101117.84
2022-08-09T01:50:48.115Z,101115.50
2022-08-09T01:53:19.517Z,101125.38
2022-08-09T01:55:49.221Z,101118.16
2022-08-09T01:58:18.629Z,101118.34
2022-08-09T02:00:52.595Z,101119.34
2022-08-09T02:03:21.373Z,101113.84
2022-08-09T02:06:03.429Z,101112.81
2022-08-09T02:08:57.558Z,101112.34
2022-08-09T02:11:23.823Z,101110.97
2022-08-09T02:14:06.213Z,101108.50
2022-08-09T02:16:53.238Z,101116.19
2022-08-09T02:19:24.665Z,101125.66
2022-08-09T02:22:10.631Z,101113.84
2022-08-09T02:24:39.225Z,101110.81
2022-08-09T02:27:09.478Z,101110.50
2022-08-09T02:29:45.767Z,101119.84
2022-08-09T02:32:18.505Z,101114.81
2022-08-09T02:34:55.649Z,101111.47
2022-08-09T02:37:31.452Z,101109.13
2022-08-09T02:40:03.127Z,101109.13
2022-08-09T02:42:33.297Z,101106.31
2022-08-09T02:45:04.985Z,101099.63
2022-08-09T02:47:57.156Z,101098.28
2022-08-09T02:50:26.837Z,101103.63
2022-08-09T02:52:56.394Z,101101.13
2022-08-09T02:55:46.873Z,101099.97
2022-08-09T02:58:35.988Z,101099.31
2022-08-09T03:01:06.171Z,101092.94
2022-08-09T03:04:12.442Z,101095.28
2022-08-09T03:06:25.105Z,101099.59
2022-08-09T03:08:55.539Z,101097.25
2022-08-09T03:12:04.570Z,101099.94
2022-08-09T03:14:12.430Z,101106.44
2022-08-09T03:16:47.564Z,101104.75
2022-08-09T03:19:59.589Z,101107.28
2022-08-09T03:22:05.702Z,101104.75
2022-08-09T03:24:42.367Z,101103.06
2022-08-09T03:27:21.589Z,101103.75
2022-08-09T03:30:00.669Z,101100.41
2022-08-09T03:32:31.445Z,101108.91
2022-08-09T03:34:59.520Z,101108.59
2022-08-09T03:37:55.941Z,101106.31
2022-08-09T03:40:18.044Z,101107.63
2022-08-09T03:42:45.858Z,101112.53
2022-08-09T03:45:15.433Z,101100.34
2022-08-09T03:47:46.788Z,101105.16
2022-08-09T03:50:18.736Z,101110.81
2022-08-09T03:52:56.170Z,101113.28
2022-08-09T03:55:25.377Z,101104.00
2022-08-09T03:58:03.188Z,101100.66
2022-08-09T04:00:42.734Z,101109.03
2022-08-09T04:03:19.750Z,101111.16
2022-08-09T04:05:59.645Z,101107.38
2022-08-09T04:08:29.106Z,101101.19
2022-08-09T04:11:01.417Z,101105.59
2022-08-09T04:14:36.881Z,101115.09
2022-08-09T04:16:20.649Z,101113.94
2022-08-09T04:18:51.258Z,101113.50
2022-08-09T04:21:19.261Z,101114.47
2022-08-09T04:23:54.116Z,101116.38
2022-08-09T04:26:23.385Z,101120.19
2022-08-09T04:28:52.398Z,101120.41
2022-08-09T04:31:22.538Z,101115.94
2022-08-09T04:33:57.093Z,101120.84
2022-08-09T04:36:28.636Z,101120.31
2022-08-09T04:38:57.425Z,101114.16
2022-08-09T04:41:32.164Z,101115.81
2022-08-09T04:44:06.289Z,101122.84
2022-08-09T04:46:58.275Z,101129.69
2022-08-09T04:49:53.736Z,101130.72
2022-08-09T04:52:22.190Z,101126.22
2022-08-09T04:54:54.273Z,101125.38
2022-08-09T04:57:23.969Z,101133.56
2022-08-09T04:59:52.518Z,101133.56
2022-08-09T05:02:20.093Z,101133.56
2022-08-09T05:04:49.149Z,101133.72
2022-08-09T05:07:27.697Z,101137.88
2022-08-09T05:09:57.610Z,101142.88
2022-08-09T05:12:26.549Z,101138.34
2022-08-09T05:14:54.069Z,101144.84
2022-08-09T05:18:38.563Z,101150.75
2022-08-09T05:20:12.648Z,101142.81
2022-08-09T05:23:50.965Z,101148.78
2022-08-09T05:25:28.223Z,101154.06
2022-08-09T05:27:59.808Z,101150.81
2022-08-09T05:30:29.951Z,101159.28
2022-08-09T05:32:58.777Z,101158.88
2022-08-09T05:35:28.153Z,101160.94
2022-08-09T05:37:57.032Z,101160.81
2022-08-09T05:40:26.745Z,101163.75
2022-08-09T05:42:54.288Z,101161.00
2022-08-09T05:45:21.893Z,101160.47
2022-08-09T05:47:54.290Z,101161.81
2022-08-09T05:50:50.742Z,101156.25
2022-08-09T05:53:21.858Z,101151.97
2022-08-09T05:56:00.079Z,101160.38
2022-08-09T05:58:29.281Z,101157.22
2022-08-09T06:00:58.148Z,101168.44
2022-08-09T06:03:34.600Z,101167.78
2022-08-09T06:06:05.830Z,101163.88
2022-08-09T06:08:34.223Z,101167.63
2022-08-09T06:11:16.471Z,101167.50
2022-08-09T06:13:44.584Z,101175.91
2022-08-09T06:16:15.162Z,101171.63
2022-08-09T06:18:44.134Z,101168.69
2022-08-09T06:21:16.190Z,101178.34
2022-08-09T06:23:58.662Z,101167.25
2022-08-09T06:26:30.185Z,101171.09
2022-08-09T06:29:05.185Z,101172.78
2022-08-09T06:31:39.975Z,101178.94
2022-08-09T06:34:22.766Z,101176.88
2022-08-09T06:36:59.149Z,101186.81
2022-08-09T06:39:48.578Z,101184.88
2022-08-09T06:42:16.302Z,101188.66
2022-08-09T06:44:47.514Z,101187.25
2022-08-09T06:47:22.096Z,101186.88
2022-08-09T06:50:14.196Z,101183.19
2022-08-09T06:52:45.719Z,101188.34
2022-08-09T06:55:15.229Z,101188.09
2022-08-09T06:58:03.065Z,101189.25
2022-08-09T07:00:53.774Z,101187.06
2022-08-09T07:03:19.865Z,101181.69
2022-08-09T07:06:04.531Z,101184.44
2022-08-09T07:08:36.942Z,101189.94
2022-08-09T07:11:06.493Z,101183.91
2022-08-09T07:14:04.471Z,101190.31
2022-08-09T07:16:43.153Z,101194.38
2022-08-09T07:19:15.552Z,101189.34
2022-08-09T07:21:55.890Z,101185.00
2022-08-09T07:24:32.642Z,101180.56
2022-08-09T07:27:11.172Z,101179.66
2022-08-09T07:29:56.981Z,101182.97
2022-08-09T07:32:33.474Z,101180.78
2022-08-09T07:35:10.097Z,101182.00
2022-08-09T07:37:44.113Z,101183.13
2022-08-09T07:40:16.996Z,101180.84
2022-08-09T07:42:54.267Z,101178.75
2022-08-09T07:45:39.328Z,101176.75
2022-08-09T07:48:25.908Z,101170.22
2022-08-09T07:51:09.527Z,101178.03
2022-08-09T07:54:05.240Z,101177.66
2022-08-09T07:56:33.594Z,101175.50
2022-08-09T07:59:01.231Z,101179.66
2022-08-09T08:01:32.852Z,101188.09
2022-08-09T08:04:00.858Z,101186.78
2022-08-09T08:06:32.081Z,101193.06
2022-08-09T08:09:04.974Z,101194.44
2022-08-09T08:12:10.984Z,101190.50
2022-08-09T08:14:24.261Z,101192.69
2022-08-09T08:17:00.801Z,101198.97
2022-08-09T08:19:36.277Z,101188.59
2022-08-09T08:22:04.502Z,101186.47
2022-08-09T08:24:39.838Z,101183.53
2022-08-09T08:27:16.857Z,101191.09
2022-08-09T08:29:48.535Z,101186.81
2022-08-09T08:32:18.909Z,101189.38
2022-08-09T08:34:52.159Z,101198.91
2022-08-09T08:37:22.932Z,101187.16
2022-08-09T08:39:54.191Z,101181.78
2022-08-09T08:42:24.371Z,101172.91
2022-08-09T08:45:11.962Z,101165.94
2022-08-09T08:47:42.913Z,101170.34
2022-08-09T08:50:15.429Z,101179.56
2022-08-09T08:52:59.532Z,101176.88
2022-08-09T08:55:28.217Z,101185.84
2022-08-09T08:57:58.140Z,101176.84
2022-08-09T09:00:29.940Z,101173.16
2022-08-09T09:03:11.385Z,101177.59
2022-08-09T09:06:00.393Z,101186.09
2022-08-09T09:08:40.391Z,101181.63
2022-08-09T09:11:13.527Z,101187.63
2022-08-09T09:13:57.083Z,101187.97
2022-08-09T09:16:30.238Z,101186.03
2022-08-09T09:19:22.689Z,101187.59
2022-08-09T09:22:02.689Z,101195.78
2022-08-09T09:24:34.879Z,101187.22
2022-08-09T09:27:04.208Z,101184.53
2022-08-09T09:29:57.990Z,101194.56
2022-08-09T09:32:35.461Z,101183.25
2022-08-09T09:35:09.637Z,101178.19
2022-08-09T09:37:40.514Z,101178.28
2022-08-09T09:40:10.123Z,101184.06
2022-08-09T09:42:39.494Z,101176.88
2022-08-09T09:45:26.816Z,101176.38
2022-08-09T09:47:59.076Z,101183.69
2022-08-09T09:50:49.369Z,101181.75
2022-08-09T09:53:21.150Z,101178.56
2022-08-09T09:56:04.120Z,101174.50
2022-08-09T09:58:45.748Z,101183.00
2022-08-09T10:01:31.470Z,101184.53
2022-08-09T10:04:09.476Z,101192.91
2022-08-09T10:06:42.813Z,101189.22
2022-08-09T10:09:22.279Z,101186.97
2022-08-09T10:12:04.350Z,101184.19
2022-08-09T10:14:40.245Z,101186.44
2022-08-09T10:17:39.207Z,101177.44
2022-08-09T10:20:15.039Z,101180.16
2022-08-09T10:22:43.164Z,101177.94
2022-08-09T10:25:14.663Z,101184.41
2022-08-09T10:27:45.146Z,101187.13
2022-08-09T10:33:29.683Z,101186.75
2022-08-09T10:36:02.424Z,101181.28
2022-08-09T10:38:40.515Z,101181.28
2022-08-09T10:41:20.552Z,101187.88
2022-08-09T10:44:01.151Z,101182.09
2022-08-09T10:46:57.702Z,101176.22
2022-08-09T10:49:50.478Z,101177.22
2022-08-09T10:52:36.368Z,101182.88
2022-08-09T10:55:23.105Z,101177.41
2022-08-09T10:57:51.876Z,101171.69
2022-08-09T11:01:11.066Z,101178.44
2022-08-09T11:03:49.632Z,101184.56
2022-08-09T11:06:25.998Z,101180.31
2022-08-09T11:08:54.112Z,101182.50
2022-08-09T11:11:23.319Z,101190.09
2022-08-09T11:14:28.061Z,101187.47
2022-08-09T11:16:56.417Z,101186.66
2022-08-09T11:20:11.059Z,101182.66
2022-08-09T11:23:03.015Z,101173.78
2022-08-09T11:25:46.157Z,101174.94
2022-08-09T11:28:54.669Z,101182.34
2022-08-09T11:31:49.091Z,101183.16
2022-08-09T11:34:31.429Z,101182.63
2022-08-09T11:37:00.617Z,101167.03
2022-08-09T11:39:33.515Z,101176.59
2022-08-09T11:42:09.396Z,101165.63
2022-08-09T11:44:48.206Z,101160.09
2022-08-09T11:47:16.330Z,101152.47
2022-08-09T11:50:55.584Z,101162.59
2022-08-09T11:54:01.529Z,101155.41
2022-08-09T11:56:41.855Z,101159.63
2022-08-09T11:59:30.355Z,101158.38
2022-08-09T12:02:37.036Z,101149.41
2022-08-09T12:04:58.825Z,101146.97
2022-08-09T12:07:29.070Z,101138.34
2022-08-09T12:10:31.968Z,101137.03
2022-08-09T12:13:03.515Z,101132.94
2022-08-09T12:15:48.794Z,101137.34
2022-08-09T12:18:29.655Z,101132.69
2022-08-09T12:21:00.441Z,101132.91
2022-08-09T12:23:56.336Z,101134.56
2022-08-09T12:26:19.602Z,101139.63
2022-08-09T12:29:15.497Z,101127.88
2022-08-09T12:32:02.343Z,101126.69
2022-08-09T12:34:34.969Z,101126.47
2022-08-09T12:37:21.427Z,101116.91
2022-08-09T12:40:02.552Z,101115.84
2022-08-09T12:42:31.004Z,101115.00
2022-08-09T12:45:00.321Z,101107.28
2022-08-09T12:47:28.534Z,101111.59
2022-08-09T12:50:24.890Z,101108.44
2022-08-09T12:53:09.191Z,101103.16
2022-08-09T12:56:12.147Z,101099.19
2022-08-09T12:58:28.890Z,101093.91
2022-08-09T13:00:58.431Z,101101.00
2022-08-09T13:03:53.417Z,101105.81
2022-08-09T13:06:34.420Z,101097.50
2022-08-09T13:09:06.855Z,101097.59
2022-08-09T13:11:39.103Z,101098.75
2022-08-09T13:14:43.007Z,101089.88
2022-08-09T13:17:01.167Z,101100.38
2022-08-09T13:20:07.313Z,101094.56
2022-08-09T13:22:37.158Z,101090.47
2022-08-09T13:25:12.176Z,101083.25
2022-08-09T13:27:54.433Z,101096.91
2022-08-09T13:30:51.255Z,101091.09
2022-08-09T13:33:22.717Z,101098.13
2022-08-09T13:36:38.130Z,101090.41
2022-08-09T13:38:56.700Z,101088.41
2022-08-09T13:41:59.096Z,101091.50
2022-08-09T13:44:16.959Z,101096.63
2022-08-09T13:47:26.917Z,101079.91
2022-08-09T13:49:39.740Z,101081.41
2022-08-09T13:52:22.982Z,101090.06
2022-08-09T13:54:59.799Z,101081.97
2022-08-09T13:57:36.748Z,101078.63
2022-08-09T14:00:12.254Z,101078.09
2022-08-09T14:03:02.828Z,101079.13
2022-08-09T14:05:57.411Z,101080.00
2022-08-09T14:08:21.530Z,101075.91
2022-08-09T14:10:53.130Z,101080.97
2022-08-09T14:14:14.896Z,101085.38
2022-08-09T14:16:12.436Z,101087.06
2022-08-09T14:18:45.170Z,101085.09
2022-08-09T14:21:18.117Z,101083.19
2022-08-09T14:23:53.910Z,101073.28
2022-08-09T14:26:24.122Z,101072.72
2022-08-09T14:28:58.635Z,101072.63
2022-08-09T14:31:35.760Z,101073.13
2022-08-09T14:34:07.956Z,101069.31
2022-08-09T14:36:39.844Z,101068.97
2022-08-09T14:39:10.954Z,101070.25
2022-08-09T14:41:41.681Z,101071.81
2022-08-09T14:44:11.441Z,101067.44
2022-08-09T14:47:03.254Z,101062.66
2022-08-09T14:49:27.108Z,101064.50
2022-08-09T14:51:58.510Z,101059.38
2022-08-09T14:54:28.047Z,101064.09
2022-08-09T14:56:58.698Z,101061.94
2022-08-09T14:59:28.484Z,101061.81
2022-08-09T15:01:56.417Z,101071.22
2022-08-09T15:04:24.269Z,101072.00
2022-08-09T15:06:52.421Z,101075.56
2022-08-09T15:10:03.295Z,101062.22
2022-08-09T15:12:11.605Z,101066.66
2022-08-09T15:14:39.318Z,101062.22
2022-08-09T15:17:09.190Z,101071.84
2022-08-09T15:19:54.470Z,101064.03
2022-08-09T15:22:25.821Z,101053.50
2022-08-09T15:24:55.147Z,101061.44
2022-08-09T15:27:22.739Z,101058.66
2022-08-09T15:30:57.137Z,101054.56
2022-08-09T15:32:37.985Z,101071.53
2022-08-09T15:35:17.867Z,101073.78
2022-08-09T15:37:56.891Z,101069.31
2022-08-09T15:40:36.357Z,101071.13
2022-08-09T15:43:03.869Z,101069.38
2022-08-09T15:45:51.939Z,101064.91
2022-08-09T15:48:29.180Z,101066.06
2022-08-09T15:50:58.428Z,101066.81
2022-08-09T15:54:03.495Z,101062.75
2022-08-09T15:56:21.559Z,101053.06
2022-08-09T15:58:56.286Z,101053.16
2022-08-09T16:01:23.908Z,101049.84
2022-08-09T16:03:51.662Z,101046.38
2022-08-09T16:06:35.797Z,101055.47
2022-08-09T16:09:05.897Z,101049.22
2022-08-09T16:11:34.879Z,101051.06
2022-08-09T16:14:07.114Z,101054.22
2022-08-09T16:16:37.317Z,101054.19
2022-08-09T16:19:05.597Z,101047.63
2022-08-09T16:21:34.913Z,101053.09
2022-08-09T16:24:03.027Z,101057.91
2022-08-09T16:26:35.145Z,101052.16
2022-08-09T16:29:11.683Z,101047.97
2022-08-09T16:32:18.159Z,101045.22
2022-08-09T16:34:29.511Z,101044.13
2022-08-09T16:37:17.131Z,101039.09
2022-08-09T16:39:54.528Z,101032.94
2022-08-09T16:42:32.614Z,101037.09
2022-08-09T16:45:01.630Z,101040.59
2022-08-09T16:48:38.092Z,101046.63
2022-08-09T16:50:32.039Z,101034.31
2022-08-09T16:53:01.376Z,101033.50
2022-08-09T16:55:31.387Z,101031.78
2022-08-09T16:58:17.123Z,101035.38
2022-08-09T17:00:47.114Z,101038.44
2022-08-09T17:03:21.987Z,101037.16
2022-08-09T17:06:08.440Z,101037.41
2022-08-09T17:08:45.477Z,101042.38
2022-08-09T17:11:40.542Z,101043.13
2022-08-09T17:14:25.730Z,101034.56
2022-08-09T17:17:00.136Z,101032.88
2022-08-09T17:20:06.182Z,101040.22
2022-08-09T17:22:28.753Z,101042.97
2022-08-09T17:25:03.262Z,101038.75
2022-08-09T17:27:32.583Z,101045.47
2022-08-09T17:30:00.165Z,101035.97
2022-08-09T17:32:38.001Z,101050.00
2022-08-09T17:35:12.155Z,101048.91
2022-08-09T17:38:11.448Z,101044.03
2022-08-09T17:40:29.238Z,101048.44
2022-08-09T17:42:59.117Z,101048.03
2022-08-09T17:46:01.720Z,101046.94
2022-08-09T17:48:17.182Z,101048.44
2022-08-09T17:50:48.718Z,101051.13
2022-08-09T17:53:24.363Z,101057.97
2022-08-09T17:55:57.000Z,101054.38
2022-08-09T17:58:27.807Z,101070.63
2022-08-09T18:00:56.727Z,101065.19
2022-08-09T18:03:30.470Z,101060.34
2022-08-09T18:06:00.715Z,101062.63
2022-08-09T18:08:28.632Z,101059.00
2022-08-09T18:11:02.067Z,101073.81
2022-08-09T18:13:39.132Z,101069.53
2022-08-09T18:16:30.532Z,101066.72
2022-08-09T18:19:04.034Z,101072.28
2022-08-09T18:21:50.422Z,101074.84
2022-08-09T18:24:20.367Z,101063.50
2022-08-09T18:26:55.439Z,101063.50
2022-08-09T18:30:42.688Z,101066.09
2022-08-09T18:32:11.035Z,101073.50
2022-08-09T18:34:39.941Z,101069.63
2022-08-09T18:37:10.559Z,101068.31
2022-08-09T18:39:55.479Z,101073.59
2022-08-09T18:42:28.196Z,101072.22
2022-08-09T18:45:01.067Z,101078.22
2022-08-09T18:47:34.876Z,101073.31
2022-08-09T18:50:08.949Z,101075.78
2022-08-09T18:52:37.962Z,101072.84
2022-08-09T18:55:13.541Z,101087.16
2022-08-09T18:57:44.540Z,101082.09
2022-08-09T19:00:16.688Z,101093.88
2022-08-09T19:02:48.495Z,101087.50
2022-08-09T19:05:49.127Z,101097.63
2022-08-09T19:08:10.565Z,101096.66
2022-08-09T19:10:41.942Z,101095.31
2022-08-09T19:13:20.619Z,101094.50
2022-08-09T19:15:51.804Z,101098.09
2022-08-09T19:18:32.617Z,101100.41
2022-08-09T19:21:09.688Z,101106.66
2022-08-09T19:24:33.574Z,101098.97
2022-08-09T19:26:31.860Z,101104.63
2022-08-09T19:29:01.878Z,101102.75
2022-08-09T19:31:30.450Z,101113.34
2022-08-09T19:34:21.636Z,101115.22
2022-08-09T19:36:51.798Z,101118.75
2022-08-09T19:39:20.554Z,101118.47
2022-08-09T19:41:56.674Z,101125.31
2022-08-09T19:44:24.412Z,101119.66
2022-08-09T19:46:53.447Z,101122.38
2022-08-09T19:50:09.844Z,101124.66
2022-08-09T19:52:12.171Z,101127.53
2022-08-09T19:54:40.238Z,101125.59
2022-08-09T19:57:08.503Z,101127.25
2022-08-09T19:59:57.329Z,101120.81
2022-08-09T20:04:10.449Z,101126.38
2022-08-09T20:05:15.273Z,101123.16
2022-08-09T20:08:00.285Z,101124.56
2022-08-09T20:10:34.851Z,101122.00
2022-08-09T20:13:05.795Z,101124.34
2022-08-09T21:15:03.971Z,101125.91
2022-08-09T21:18:23.135Z,101120.06
2022-08-09T21:20:26.021Z,101129.50
2022-08-09T21:22:55.001Z,101122.78
2022-08-09T21:25:44.411Z,101137.31
2022-08-09T21:29:22.868Z,101130.09
2022-08-09T21:31:50.623Z,101127.50
2022-08-09T21:34:28.750Z,101129.91
2022-08-09T21:36:56.937Z,101126.84
2022-08-09T21:39:28.097Z,101127.69
2022-08-09T21:42:10.659Z,101126.66
2022-08-09T21:44:40.048Z,101137.97
2022-08-09T21:47:17.515Z,101146.97
2022-08-09T21:49:46.259Z,101143.13
2022-08-09T21:52:18.408Z,101138.13
2022-08-09T21:54:57.168Z,101149.03
2022-08-09T21:57:38.894Z,101148.28
2022-08-09T22:00:25.691Z,101150.69
2022-08-09T22:02:59.158Z,101151.59
2022-08-09T22:05:37.604Z,101152.91
2022-08-09T22:08:14.741Z,101151.53
2022-08-09T22:11:50.317Z,101145.56
2022-08-09T22:13:34.428Z,101162.88
2022-08-09T22:16:07.571Z,101159.66
2022-08-09T22:18:37.213Z,101153.16
2022-08-09T22:21:09.940Z,101157.03
2022-08-09T22:23:59.344Z,101166.47
2022-08-09T22:26:34.692Z,101167.69
2022-08-09T22:29:06.890Z,101164.88
2022-08-09T22:31:37.189Z,101165.22
2022-08-09T22:34:09.799Z,101159.75
2022-08-09T22:36:45.998Z,101159.97
2022-08-09T22:39:47.121Z,101164.41
2022-08-09T22:42:02.135Z,101158.81
2022-08-09T22:44:32.965Z,101149.91
2022-08-09T22:48:15.884Z,101152.91
2022-08-09T22:49:52.009Z,101153.44
2022-08-09T22:52:20.081Z,101159.63
2022-08-09T22:54:48.618Z,101164.19
2022-08-09T22:57:16.389Z,101156.13
2022-08-09T22:59:57.333Z,101164.34
2022-08-09T23:02:27.930Z,101169.34
2022-08-09T23:04:56.965Z,101168.22
2022-08-09T23:08:27.537Z,101167.06
2022-08-09T23:10:32.741Z,101177.59
2022-08-09T23:13:00.692Z,101178.06
2022-08-09T23:15:29.213Z,101176.91
2022-08-09T23:17:58.104Z,101184.00
2022-08-09T23:20:26.098Z,101175.59
2022-08-09T23:22:53.839Z,101168.25
2022-08-09T23:25:21.493Z,101178.59
2022-08-09T23:28:00.605Z,101168.31
2022-08-09T23:30:39.008Z,101168.63
2022-08-09T23:33:08.289Z,101170.50
2022-08-09T23:36:04.623Z,101163.00
2022-08-09T23:38:23.583Z,101167.22
2022-08-09T23:40:51.690Z,101169.13
2022-08-09T23:43:19.422Z,101161.53
2022-08-09T23:45:47.083Z,101169.16
2022-08-09T23:48:16.872Z,101164.75
2022-08-09T23:50:44.426Z,101162.13
2022-08-09T23:53:12.413Z,101161.78
2022-08-09T23:55:40.044Z,101161.59
2022-08-09T23:58:25.861Z,101144.84
